Round Oak, Georgia
Current Conditions -  °F | °C
As of 2:35 PM on Thursday 27 Nov 2014 (Local Time) from KMLJ Reporting Station
Scattered Clouds Scattered Clouds  
Wind Chill: 52°   Ceiling: Unl
Heat Index: 52°   Visibility: 10mi
Dew Point: 34°   Wind: 10mph
Humidity: 50%   Direction: 280°W
Pressure: 30.24"   Gusts: 17mph
Location:  33.177°N, 83.708°W
Report Text: KMLJ 271935Z AUTO 28009G15KT 10SM SCT050 11/01 A3024 RMK AO2
Loading
Personal Weather Stations






























Interactive Weather Map New forecast layout! Learn more

10-Day Weather Forecast

Advertisements
Track Severe Weather on mobile